Silver Lake, Wisconsin
Current Conditions -  °F | °C
As of 8:55 PM on Thursday 27 Nov 2014 (Local Time) from KBUU Reporting Station
Clear Clear  
Wind Chill:   Ceiling: Unl
Heat Index:   Visibility: 10mi
Dew Point:   Wind: 0mph
Humidity: 94%   Direction: NA
Pressure: 30.38"   Gusts: NA
Location:  42.55°N, 88.17°W
Report Text: KBUU 280255Z AUTO 00000KT 10SM CLR M15/M16 A3038 RMK AO2 T11551163
Loading
Personal Weather Stations






























Interactive Weather Map New forecast layout! Learn more

10-Day Weather Forecast

Advertisements
Track Severe Weather on mobile